sensor_id;sensor_type;location;lat;lon;timestamp;temperature;humidity
40932;DHT22;36257;46.052;12.540;2023-05-14T00:01:41;12.40;95.30
40932;DHT22;36257;46.052;12.540;2023-05-14T00:04:06;12.50;95.00
40932;DHT22;36257;46.052;12.540;2023-05-14T00:06:32;12.60;94.50
40932;DHT22;36257;46.052;12.540;2023-05-14T00:08:58;12.60;94.80
40932;DHT22;36257;46.052;12.540;2023-05-14T00:11:23;12.70;94.30
40932;DHT22;36257;46.052;12.540;2023-05-14T00:13:49;12.70;94.50
40932;DHT22;36257;46.052;12.540;2023-05-14T00:16:15;12.70;94.20
40932;DHT22;36257;46.052;12.540;2023-05-14T00:18:42;12.70;94.50
40932;DHT22;36257;46.052;12.540;2023-05-14T00:21:08;12.70;94.30
40932;DHT22;36257;46.052;12.540;2023-05-14T00:23:33;12.70;94.40
40932;DHT22;36257;46.052;12.540;2023-05-14T00:25:59;12.70;94.10
40932;DHT22;36257;46.052;12.540;2023-05-14T00:28:25;12.70;94.10
40932;DHT22;36257;46.052;12.540;2023-05-14T00:30:50;12.70;94.10
40932;DHT22;36257;46.052;12.540;2023-05-14T00:33:16;12.70;94.40
40932;DHT22;36257;46.052;12.540;2023-05-14T00:35:42;12.70;94.80
40932;DHT22;36257;46.052;12.540;2023-05-14T00:38:08;12.70;95.70
40932;DHT22;36257;46.052;12.540;2023-05-14T00:40:34;12.70;95.80
40932;DHT22;36257;46.052;12.540;2023-05-14T00:43:00;12.70;95.50
40932;DHT22;36257;46.052;12.540;2023-05-14T00:45:26;12.70;95.20
40932;DHT22;36257;46.052;12.540;2023-05-14T00:47:52;12.70;95.50
40932;DHT22;36257;46.052;12.540;2023-05-14T00:50:18;12.70;95.90
40932;DHT22;36257;46.052;12.540;2023-05-14T00:52:46;12.70;95.80
40932;DHT22;36257;46.052;12.540;2023-05-14T00:55:12;12.70;95.10
40932;DHT22;36257;46.052;12.540;2023-05-14T00:57:40;12.70;94.80
40932;DHT22;36257;46.052;12.540;2023-05-14T01:00:07;12.70;94.80
40932;DHT22;36257;46.052;12.540;2023-05-14T01:02:33;12.80;95.00
40932;DHT22;36257;46.052;12.540;2023-05-14T01:04:58;12.80;95.20
40932;DHT22;36257;46.052;12.540;2023-05-14T01:12:55;12.80;95.20
40932;DHT22;36257;46.052;12.540;2023-05-14T01:15:27;12.70;95.60
40932;DHT22;36257;46.052;12.540;2023-05-14T01:17:58;12.70;95.40
40932;DHT22;36257;46.052;12.540;2023-05-14T01:20:26;12.80;95.10
40932;DHT22;36257;46.052;12.540;2023-05-14T01:22:52;12.80;95.10
40932;DHT22;36257;46.052;12.540;2023-05-14T01:25:17;12.80;95.40
40932;DHT22;36257;46.052;12.540;2023-05-14T01:27:50;12.80;95.00
40932;DHT22;36257;46.052;12.540;2023-05-14T01:32:56;12.80;94.70
40932;DHT22;36257;46.052;12.540;2023-05-14T01:35:25;12.80;94.30
40932;DHT22;36257;46.052;12.540;2023-05-14T01:37:54;12.90;94.80
40932;DHT22;36257;46.052;12.540;2023-05-14T01:40:22;12.90;94.40
40932;DHT22;36257;46.052;12.540;2023-05-14T01:42:49;12.90;94.50
40932;DHT22;36257;46.052;12.540;2023-05-14T01:45:18;12.90;94.60
40932;DHT22;36257;46.052;12.540;2023-05-14T01:47:44;12.90;95.00
40932;DHT22;36257;46.052;12.540;2023-05-14T01:50:10;12.90;95.00
40932;DHT22;36257;46.052;12.540;2023-05-14T01:52:35;12.80;95.10
40932;DHT22;36257;46.052;12.540;2023-05-14T01:55:01;12.80;94.90
40932;DHT22;36257;46.052;12.540;2023-05-14T01:57:27;12.90;95.10
40932;DHT22;36257;46.052;12.540;2023-05-14T01:59:52;12.90;95.00
40932;DHT22;36257;46.052;12.540;2023-05-14T02:02:18;12.90;95.20
40932;DHT22;36257;46.052;12.540;2023-05-14T02:04:43;12.80;95.30
40932;DHT22;36257;46.052;12.540;2023-05-14T02:07:09;12.80;95.00
40932;DHT22;36257;46.052;12.540;2023-05-14T02:09:35;12.80;94.80
40932;DHT22;36257;46.052;12.540;2023-05-14T02:12:00;12.80;94.80
40932;DHT22;36257;46.052;12.540;2023-05-14T02:14:26;12.80;94.30
40932;DHT22;36257;46.052;12.540;2023-05-14T02:16:52;12.90;94.10
40932;DHT22;36257;46.052;12.540;2023-05-14T02:19:17;12.90;94.20
40932;DHT22;36257;46.052;12.540;2023-05-14T02:21:43;12.90;94.30
40932;DHT22;36257;46.052;12.540;2023-05-14T02:24:08;12.90;94.40
40932;DHT22;36257;46.052;12.540;2023-05-14T02:26:34;12.80;94.20
40932;DHT22;36257;46.052;12.540;2023-05-14T02:29:00;12.80;94.00
40932;DHT22;36257;46.052;12.540;2023-05-14T02:31:25;12.90;93.90
40932;DHT22;36257;46.052;12.540;2023-05-14T02:33:51;12.90;93.60
40932;DHT22;36257;46.052;12.540;2023-05-14T02:36:16;12.90;93.50
40932;DHT22;36257;46.052;12.540;2023-05-14T02:38:42;12.90;94.10
40932;DHT22;36257;46.052;12.540;2023-05-14T02:41:08;12.90;94.60
40932;DHT22;36257;46.052;12.540;2023-05-14T02:43:33;12.80;94.60
40932;DHT22;36257;46.052;12.540;2023-05-14T02:45:59;12.80;94.70
40932;DHT22;36257;46.052;12.540;2023-05-14T02:48:24;12.70;96.40
40932;DHT22;36257;46.052;12.540;2023-05-14T02:50:50;12.70;96.80
40932;DHT22;36257;46.052;12.540;2023-05-14T02:53:17;12.70;97.20
40932;DHT22;36257;46.052;12.540;2023-05-14T02:55:42;12.70;96.80
40932;DHT22;36257;46.052;12.540;2023-05-14T02:58:08;12.50;96.60
40932;DHT22;36257;46.052;12.540;2023-05-14T03:00:34;12.50;96.60
40932;DHT22;36257;46.052;12.540;2023-05-14T03:03:00;12.40;97.60
40932;DHT22;36257;46.052;12.540;2023-05-14T03:05:26;12.50;97.20
40932;DHT22;36257;46.052;12.540;2023-05-14T03:07:51;12.60;97.20
40932;DHT22;36257;46.052;12.540;2023-05-14T03:10:18;12.40;97.70
40932;DHT22;36257;46.052;12.540;2023-05-14T03:12:44;12.40;98.50
40932;DHT22;36257;46.052;12.540;2023-05-14T03:15:10;12.50;97.70
40932;DHT22;36257;46.052;12.540;2023-05-14T03:17:35;12.50;97.60
40932;DHT22;36257;46.052;12.540;2023-05-14T03:20:01;12.40;98.00
40932;DHT22;36257;46.052;12.540;2023-05-14T03:22:27;12.30;97.40
40932;DHT22;36257;46.052;12.540;2023-05-14T03:24:53;12.30;99.70
40932;DHT22;36257;46.052;12.540;2023-05-14T03:27:19;12.30;99.90
40932;DHT22;36257;46.052;12.540;2023-05-14T03:29:45;12.20;99.90
40932;DHT22;36257;46.052;12.540;2023-05-14T03:32:10;12.10;99.90
40932;DHT22;36257;46.052;12.540;2023-05-14T03:34:36;12.20;99.90
40932;DHT22;36257;46.052;12.540;2023-05-14T03:37:02;12.10;99.90
40932;DHT22;36257;46.052;12.540;2023-05-14T03:39:28;12.00;99.90
40932;DHT22;36257;46.052;12.540;2023-05-14T03:41:54;12.00;99.90
40932;DHT22;36257;46.052;12.540;2023-05-14T03:44:23;11.90;99.90
40932;DHT22;36257;46.052;12.540;2023-05-14T03:46:49;11.90;99.90
40932;DHT22;36257;46.052;12.540;2023-05-14T03:49:14;11.90;99.90
40932;DHT22;36257;46.052;12.540;2023-05-14T03:51:40;11.90;99.90
40932;DHT22;36257;46.052;12.540;2023-05-14T03:54:06;12.00;99.90
40932;DHT22;36257;46.052;12.540;2023-05-14T03:56:31;12.10;99.90
40932;DHT22;36257;46.052;12.540;2023-05-14T03:58:57;12.10;99.90
40932;DHT22;36257;46.052;12.540;2023-05-14T04:01:23;12.10;99.90
40932;DHT22;36257;46.052;12.540;2023-05-14T04:03:48;12.00;99.90
40932;DHT22;36257;46.052;12.540;2023-05-14T04:06:14;12.00;99.90
40932;DHT22;36257;46.052;12.540;2023-05-14T04:08:40;12.00;99.90
40932;DHT22;36257;46.052;12.540;2023-05-14T04:11:06;12.00;99.90
40932;DHT22;36257;46.052;12.540;2023-05-14T04:13:31;12.00;99.90
40932;DHT22;36257;46.052;12.540;2023-05-14T04:15:57;12.00;99.90
40932;DHT22;36257;46.052;12.540;2023-05-14T04:18:23;12.10;98.70
40932;DHT22;36257;46.052;12.540;2023-05-14T04:20:48;12.20;97.90
40932;DHT22;36257;46.052;12.540;2023-05-14T04:23:14;12.20;98.20
40932;DHT22;36257;46.052;12.540;2023-05-14T04:25:40;12.30;98.60
40932;DHT22;36257;46.052;12.540;2023-05-14T04:28:06;12.30;97.90
40932;DHT22;36257;46.052;12.540;2023-05-14T04:30:32;12.40;97.90
40932;DHT22;36257;46.052;12.540;2023-05-14T04:32:58;12.40;97.60
40932;DHT22;36257;46.052;12.540;2023-05-14T04:35:23;12.50;97.20
40932;DHT22;36257;46.052;12.540;2023-05-14T04:37:49;12.60;97.20
40932;DHT22;36257;46.052;12.540;2023-05-14T04:40:15;12.60;96.30
40932;DHT22;36257;46.052;12.540;2023-05-14T04:42:43;12.60;94.80
40932;DHT22;36257;46.052;12.540;2023-05-14T04:45:09;12.70;95.00
40932;DHT22;36257;46.052;12.540;2023-05-14T04:47:36;12.70;94.80
40932;DHT22;36257;46.052;12.540;2023-05-14T04:50:02;12.90;94.20
40932;DHT22;36257;46.052;12.540;2023-05-14T04:52:28;13.00;95.30
40932;DHT22;36257;46.052;12.540;2023-05-14T04:54:55;13.00;95.20
40932;DHT22;36257;46.052;12.540;2023-05-14T04:57:21;13.10;95.60
40932;DHT22;36257;46.052;12.540;2023-05-14T04:59:46;13.10;96.20
40932;DHT22;36257;46.052;12.540;2023-05-14T05:02:12;13.00;96.20
40932;DHT22;36257;46.052;12.540;2023-05-14T05:04:38;13.00;97.00
40932;DHT22;36257;46.052;12.540;2023-05-14T05:07:03;12.90;96.90
40932;DHT22;36257;46.052;12.540;2023-05-14T05:09:30;12.90;97.30
40932;DHT22;36257;46.052;12.540;2023-05-14T05:11:56;12.90;96.50
40932;DHT22;36257;46.052;12.540;2023-05-14T05:14:23;13.00;96.80
40932;DHT22;36257;46.052;12.540;2023-05-14T05:16:50;13.00;97.50
40932;DHT22;36257;46.052;12.540;2023-05-14T05:19:15;13.10;98.00
40932;DHT22;36257;46.052;12.540;2023-05-14T05:21:41;13.00;99.30
40932;DHT22;36257;46.052;12.540;2023-05-14T05:24:07;13.00;99.50
40932;DHT22;36257;46.052;12.540;2023-05-14T05:26:33;13.00;99.90
40932;DHT22;36257;46.052;12.540;2023-05-14T05:29:02;12.90;99.90
40932;DHT22;36257;46.052;12.540;2023-05-14T05:31:28;12.90;99.90
40932;DHT22;36257;46.052;12.540;2023-05-14T05:33:54;12.90;99.90
40932;DHT22;36257;46.052;12.540;2023-05-14T05:36:20;12.90;99.90
40932;DHT22;36257;46.052;12.540;2023-05-14T05:38:45;12.80;99.90
40932;DHT22;36257;46.052;12.540;2023-05-14T05:41:11;12.80;99.90
40932;DHT22;36257;46.052;12.540;2023-05-14T05:43:37;12.80;99.90
40932;DHT22;36257;46.052;12.540;2023-05-14T05:46:02;12.80;99.90
40932;DHT22;36257;46.052;12.540;2023-05-14T05:48:28;12.80;99.90
40932;DHT22;36257;46.052;12.540;2023-05-14T05:50:54;12.90;99.90
40932;DHT22;36257;46.052;12.540;2023-05-14T05:53:20;13.00;99.40
40932;DHT22;36257;46.052;12.540;2023-05-14T05:55:45;13.00;98.80
40932;DHT22;36257;46.052;12.540;2023-05-14T05:58:11;13.00;99.10
40932;DHT22;36257;46.052;12.540;2023-05-14T06:00:38;13.10;98.30
40932;DHT22;36257;46.052;12.540;2023-05-14T06:03:04;13.10;98.80
40932;DHT22;36257;46.052;12.540;2023-05-14T06:05:30;13.20;98.70
40932;DHT22;36257;46.052;12.540;2023-05-14T06:07:55;13.20;98.30
40932;DHT22;36257;46.052;12.540;2023-05-14T06:10:21;13.30;98.20
40932;DHT22;36257;46.052;12.540;2023-05-14T06:12:46;13.30;98.00
40932;DHT22;36257;46.052;12.540;2023-05-14T06:15:13;13.40;98.70
40932;DHT22;36257;46.052;12.540;2023-05-14T06:17:39;13.50;97.50
40932;DHT22;36257;46.052;12.540;2023-05-14T06:20:05;13.60;97.50
40932;DHT22;36257;46.052;12.540;2023-05-14T06:22:32;13.70;97.50
40932;DHT22;36257;46.052;12.540;2023-05-14T06:24:58;13.80;98.10
40932;DHT22;36257;46.052;12.540;2023-05-14T06:27:24;13.80;98.60
40932;DHT22;36257;46.052;12.540;2023-05-14T06:29:49;13.90;98.70
40932;DHT22;36257;46.052;12.540;2023-05-14T06:32:15;13.90;99.20
40932;DHT22;36257;46.052;12.540;2023-05-14T06:34:42;14.00;99.90
40932;DHT22;36257;46.052;12.540;2023-05-14T06:37:08;14.10;99.90
40932;DHT22;36257;46.052;12.540;2023-05-14T06:39:35;14.20;99.90
40932;DHT22;36257;46.052;12.540;2023-05-14T06:42:01;14.30;99.90
40932;DHT22;36257;46.052;12.540;2023-05-14T06:44:27;14.40;99.90
40932;DHT22;36257;46.052;12.540;2023-05-14T06:46:52;14.60;98.20
40932;DHT22;36257;46.052;12.540;2023-05-14T06:49:18;14.70;95.80
40932;DHT22;36257;46.052;12.540;2023-05-14T06:51:44;14.90;95.80
40932;DHT22;36257;46.052;12.540;2023-05-14T06:54:10;15.00;96.40
40932;DHT22;36257;46.052;12.540;2023-05-14T06:56:36;15.00;95.90
40932;DHT22;36257;46.052;12.540;2023-05-14T06:59:01;15.10;95.30
40932;DHT22;36257;46.052;12.540;2023-05-14T07:01:27;15.10;95.30
40932;DHT22;36257;46.052;12.540;2023-05-14T07:03:53;15.20;94.50
40932;DHT22;36257;46.052;12.540;2023-05-14T07:06:19;15.20;94.70
40932;DHT22;36257;46.052;12.540;2023-05-14T07:08:44;15.20;94.20
40932;DHT22;36257;46.052;12.540;2023-05-14T07:11:10;15.20;95.40
40932;DHT22;36257;46.052;12.540;2023-05-14T07:13:38;15.10;95.40
40932;DHT22;36257;46.052;12.540;2023-05-14T07:16:04;15.00;97.60
40932;DHT22;36257;46.052;12.540;2023-05-14T07:18:29;15.10;97.80
40932;DHT22;36257;46.052;12.540;2023-05-14T07:20:55;15.10;97.70
40932;DHT22;36257;46.052;12.540;2023-05-14T07:23:21;15.10;95.90
40932;DHT22;36257;46.052;12.540;2023-05-14T07:25:46;15.20;97.60
40932;DHT22;36257;46.052;12.540;2023-05-14T07:28:12;15.20;96.50
40932;DHT22;36257;46.052;12.540;2023-05-14T07:30:38;15.20;96.90
40932;DHT22;36257;46.052;12.540;2023-05-14T07:33:03;15.40;94.90
40932;DHT22;36257;46.052;12.540;2023-05-14T07:35:29;15.40;93.80
40932;DHT22;36257;46.052;12.540;2023-05-14T07:37:55;15.50;94.80
40932;DHT22;36257;46.052;12.540;2023-05-14T07:40:20;15.60;91.90
40932;DHT22;36257;46.052;12.540;2023-05-14T07:42:46;15.60;94.30
40932;DHT22;36257;46.052;12.540;2023-05-14T07:45:12;15.70;94.40
40932;DHT22;36257;46.052;12.540;2023-05-14T07:47:38;15.80;94.70
40932;DHT22;36257;46.052;12.540;2023-05-14T07:50:05;15.80;96.30
40932;DHT22;36257;46.052;12.540;2023-05-14T07:52:31;15.90;94.60
40932;DHT22;36257;46.052;12.540;2023-05-14T07:54:56;15.90;95.80
40932;DHT22;36257;46.052;12.540;2023-05-14T07:57:22;15.90;95.30
40932;DHT22;36257;46.052;12.540;2023-05-14T07:59:48;15.90;96.00
40932;DHT22;36257;46.052;12.540;2023-05-14T08:02:14;15.90;96.70
40932;DHT22;36257;46.052;12.540;2023-05-14T08:04:40;15.80;96.70
40932;DHT22;36257;46.052;12.540;2023-05-14T08:07:06;15.70;97.80
40932;DHT22;36257;46.052;12.540;2023-05-14T08:09:33;15.80;98.20
40932;DHT22;36257;46.052;12.540;2023-05-14T08:11:58;15.70;98.40
40932;DHT22;36257;46.052;12.540;2023-05-14T08:14:24;15.70;99.60
40932;DHT22;36257;46.052;12.540;2023-05-14T08:16:50;15.70;99.90
40932;DHT22;36257;46.052;12.540;2023-05-14T08:19:15;15.60;99.90
40932;DHT22;36257;46.052;12.540;2023-05-14T08:21:41;15.60;98.90
40932;DHT22;36257;46.052;12.540;2023-05-14T08:24:07;15.50;99.70
40932;DHT22;36257;46.052;12.540;2023-05-14T08:26:32;15.50;99.90
40932;DHT22;36257;46.052;12.540;2023-05-14T08:28:58;15.50;99.90
40932;DHT22;36257;46.052;12.540;2023-05-14T08:31:24;15.40;99.90
40932;DHT22;36257;46.052;12.540;2023-05-14T08:33:49;15.40;99.90
40932;DHT22;36257;46.052;12.540;2023-05-14T08:36:15;15.50;99.60
40932;DHT22;36257;46.052;12.540;2023-05-14T08:38:41;15.40;99.00
40932;DHT22;36257;46.052;12.540;2023-05-14T08:41:07;15.30;99.90
40932;DHT22;36257;46.052;12.540;2023-05-14T08:44:06;15.20;98.80
40932;DHT22;36257;46.052;12.540;2023-05-14T08:46:35;15.20;98.20
40932;DHT22;36257;46.052;12.540;2023-05-14T08:49:26;15.20;99.90
40932;DHT22;36257;46.052;12.540;2023-05-14T08:51:55;15.20;98.80
40932;DHT22;36257;46.052;12.540;2023-05-14T08:54:20;15.10;99.60
40932;DHT22;36257;46.052;12.540;2023-05-14T08:56:51;15.20;99.90
40932;DHT22;36257;46.052;12.540;2023-05-14T08:59:18;15.20;99.90
40932;DHT22;36257;46.052;12.540;2023-05-14T09:01:46;15.30;99.90
40932;DHT22;36257;46.052;12.540;2023-05-14T09:04:14;15.40;99.90
40932;DHT22;36257;46.052;12.540;2023-05-14T09:06:42;15.50;99.20
40932;DHT22;36257;46.052;12.540;2023-05-14T09:09:08;15.50;99.90
40932;DHT22;36257;46.052;12.540;2023-05-14T09:11:40;15.60;99.90
40932;DHT22;36257;46.052;12.540;2023-05-14T09:14:06;15.60;99.90
40932;DHT22;36257;46.052;12.540;2023-05-14T09:16:32;15.60;99.90
40932;DHT22;36257;46.052;12.540;2023-05-14T09:18:58;15.60;99.90
40932;DHT22;36257;46.052;12.540;2023-05-14T09:21:24;15.70;99.90
40932;DHT22;36257;46.052;12.540;2023-05-14T09:23:53;15.70;99.90
40932;DHT22;36257;46.052;12.540;2023-05-14T09:26:23;15.70;99.90
40932;DHT22;36257;46.052;12.540;2023-05-14T09:28:53;15.60;99.90
40932;DHT22;36257;46.052;12.540;2023-05-14T09:31:19;15.60;99.90
40932;DHT22;36257;46.052;12.540;2023-05-14T09:33:52;15.60;99.90
40932;DHT22;36257;46.052;12.540;2023-05-14T09:36:18;15.60;99.90
40932;DHT22;36257;46.052;12.540;2023-05-14T09:38:44;15.60;99.90
40932;DHT22;36257;46.052;12.540;2023-05-14T09:41:09;15.50;99.90
40932;DHT22;36257;46.052;12.540;2023-05-14T09:43:35;15.50;99.90
40932;DHT22;36257;46.052;12.540;2023-05-14T09:46:01;15.60;98.00
40932;DHT22;36257;46.052;12.540;2023-05-14T09:48:27;15.50;99.90
40932;DHT22;36257;46.052;12.540;2023-05-14T09:50:53;15.50;99.90
40932;DHT22;36257;46.052;12.540;2023-05-14T09:53:19;15.50;99.90
40932;DHT22;36257;46.052;12.540;2023-05-14T09:55:45;15.40;99.90
40932;DHT22;36257;46.052;12.540;2023-05-14T09:58:10;15.50;99.90
40932;DHT22;36257;46.052;12.540;2023-05-14T10:00:38;15.50;99.90
40932;DHT22;36257;46.052;12.540;2023-05-14T10:03:07;15.60;99.90
40932;DHT22;36257;46.052;12.540;2023-05-14T10:05:34;15.60;99.90
40932;DHT22;36257;46.052;12.540;2023-05-14T10:08:05;15.50;99.90
40932;DHT22;36257;46.052;12.540;2023-05-14T10:10:34;15.60;99.90
40932;DHT22;36257;46.052;12.540;2023-05-14T10:13:11;15.40;99.90
40932;DHT22;36257;46.052;12.540;2023-05-14T10:16:00;15.30;99.90
40932;DHT22;36257;46.052;12.540;2023-05-14T10:18:30;15.20;99.90
40932;DHT22;36257;46.052;12.540;2023-05-14T10:21:05;15.10;99.90
40932;DHT22;36257;46.052;12.540;2023-05-14T10:23:32;14.90;99.90
40932;DHT22;36257;46.052;12.540;2023-05-14T10:25:59;14.70;99.90
40932;DHT22;36257;46.052;12.540;2023-05-14T10:28:26;14.50;99.90
40932;DHT22;36257;46.052;12.540;2023-05-14T10:30:53;14.20;99.90
40932;DHT22;36257;46.052;12.540;2023-05-14T10:33:18;14.10;99.90
40932;DHT22;36257;46.052;12.540;2023-05-14T10:35:55;14.10;99.90
40932;DHT22;36257;46.052;12.540;2023-05-14T10:38:22;14.10;99.90
40932;DHT22;36257;46.052;12.540;2023-05-14T10:40:48;14.10;99.90
40932;DHT22;36257;46.052;12.540;2023-05-14T10:43:15;14.10;99.90
40932;DHT22;36257;46.052;12.540;2023-05-14T10:45:43;14.10;99.90
40932;DHT22;36257;46.052;12.540;2023-05-14T10:48:09;14.10;99.90
40932;DHT22;36257;46.052;12.540;2023-05-14T10:50:35;14.00;99.90
40932;DHT22;36257;46.052;12.540;2023-05-14T10:53:01;13.90;99.90
40932;DHT22;36257;46.052;12.540;2023-05-14T10:55:27;13.90;99.90
40932;DHT22;36257;46.052;12.540;2023-05-14T10:57:53;14.00;99.90
40932;DHT22;36257;46.052;12.540;2023-05-14T11:00:18;14.00;99.90
40932;DHT22;36257;46.052;12.540;2023-05-14T11:02:45;14.00;99.90
40932;DHT22;36257;46.052;12.540;2023-05-14T11:05:13;14.10;99.90
40932;DHT22;36257;46.052;12.540;2023-05-14T11:07:45;14.10;99.90
40932;DHT22;36257;46.052;12.540;2023-05-14T11:10:20;14.20;99.90
40932;DHT22;36257;46.052;12.540;2023-05-14T11:12:48;14.20;99.90
40932;DHT22;36257;46.052;12.540;2023-05-14T11:15:16;14.30;99.90
40932;DHT22;36257;46.052;12.540;2023-05-14T11:17:43;14.30;99.90
40932;DHT22;36257;46.052;12.540;2023-05-14T11:20:10;14.40;99.90
40932;DHT22;36257;46.052;12.540;2023-05-14T11:22:37;14.40;99.90
40932;DHT22;36257;46.052;12.540;2023-05-14T11:25:04;14.40;99.90
40932;DHT22;36257;46.052;12.540;2023-05-14T11:27:35;14.50;99.90
40932;DHT22;36257;46.052;12.540;2023-05-14T11:30:01;14.50;99.90
40932;DHT22;36257;46.052;12.540;2023-05-14T11:32:28;14.50;99.90
40932;DHT22;36257;46.052;12.540;2023-05-14T11:34:56;14.50;99.90
40932;DHT22;36257;46.052;12.540;2023-05-14T11:37:22;14.50;99.90
40932;DHT22;36257;46.052;12.540;2023-05-14T11:39:50;14.30;99.90
40932;DHT22;36257;46.052;12.540;2023-05-14T11:42:16;14.20;99.90
40932;DHT22;36257;46.052;12.540;2023-05-14T11:44:46;14.20;99.90
40932;DHT22;36257;46.052;12.540;2023-05-14T11:47:13;14.20;99.90
40932;DHT22;36257;46.052;12.540;2023-05-14T11:49:39;14.20;99.90
40932;DHT22;36257;46.052;12.540;2023-05-14T11:52:06;14.20;99.90
40932;DHT22;36257;46.052;12.540;2023-05-14T11:54:33;14.20;99.90
40932;DHT22;36257;46.052;12.540;2023-05-14T11:57:07;14.20;99.90
40932;DHT22;36257;46.052;12.540;2023-05-14T11:59:33;14.30;99.90
40932;DHT22;36257;46.052;12.540;2023-05-14T12:01:59;14.30;99.90
40932;DHT22;36257;46.052;12.540;2023-05-14T12:04:25;14.30;99.90
40932;DHT22;36257;46.052;12.540;2023-05-14T12:06:53;14.40;99.90
40932;DHT22;36257;46.052;12.540;2023-05-14T12:09:20;14.50;99.90
40932;DHT22;36257;46.052;12.540;2023-05-14T12:11:47;14.50;99.90
40932;DHT22;36257;46.052;12.540;2023-05-14T12:14:16;14.60;99.90
40932;DHT22;36257;46.052;12.540;2023-05-14T12:16:43;14.70;99.90
40932;DHT22;36257;46.052;12.540;2023-05-14T12:19:10;14.80;99.90
40932;DHT22;36257;46.052;12.540;2023-05-14T12:21:36;14.90;99.90
40932;DHT22;36257;46.052;12.540;2023-05-14T12:24:02;14.90;99.90
40932;DHT22;36257;46.052;12.540;2023-05-14T12:26:32;15.00;99.90
40932;DHT22;36257;46.052;12.540;2023-05-14T12:29:02;15.20;99.90
40932;DHT22;36257;46.052;12.540;2023-05-14T12:31:32;15.40;99.90
40932;DHT22;36257;46.052;12.540;2023-05-14T12:33:58;15.50;99.90
40932;DHT22;36257;46.052;12.540;2023-05-14T12:36:24;15.60;99.90
40932;DHT22;36257;46.052;12.540;2023-05-14T12:38:57;15.60;99.90
40932;DHT22;36257;46.052;12.540;2023-05-14T12:41:24;15.70;99.90
40932;DHT22;36257;46.052;12.540;2023-05-14T12:43:49;15.90;99.90
40932;DHT22;36257;46.052;12.540;2023-05-14T12:46:15;16.20;99.90
40932;DHT22;36257;46.052;12.540;2023-05-14T12:48:41;16.40;99.90
40932;DHT22;36257;46.052;12.540;2023-05-14T12:51:07;16.60;99.90
40932;DHT22;36257;46.052;12.540;2023-05-14T12:53:33;16.70;99.90
40932;DHT22;36257;46.052;12.540;2023-05-14T12:55:59;16.90;99.90
40932;DHT22;36257;46.052;12.540;2023-05-14T12:58:25;17.20;99.90
40932;DHT22;36257;46.052;12.540;2023-05-14T13:00:51;17.30;99.90
40932;DHT22;36257;46.052;12.540;2023-05-14T13:03:16;17.60;99.90
40932;DHT22;36257;46.052;12.540;2023-05-14T13:05:42;17.80;99.90
40932;DHT22;36257;46.052;12.540;2023-05-14T13:08:08;18.10;98.20
40932;DHT22;36257;46.052;12.540;2023-05-14T13:10:34;18.50;96.50
40932;DHT22;36257;46.052;12.540;2023-05-14T13:13:00;18.80;94.30
40932;DHT22;36257;46.052;12.540;2023-05-14T13:15:29;19.10;89.90
40932;DHT22;36257;46.052;12.540;2023-05-14T13:17:56;19.30;89.10
40932;DHT22;36257;46.052;12.540;2023-05-14T13:20:21;19.20;85.60
40932;DHT22;36257;46.052;12.540;2023-05-14T13:22:48;19.20;87.70
40932;DHT22;36257;46.052;12.540;2023-05-14T13:25:13;19.10;87.80
40932;DHT22;36257;46.052;12.540;2023-05-14T13:27:39;19.00;86.70
40932;DHT22;36257;46.052;12.540;2023-05-14T13:30:05;18.80;84.40
40932;DHT22;36257;46.052;12.540;2023-05-14T13:32:31;18.50;86.00
40932;DHT22;36257;46.052;12.540;2023-05-14T13:34:56;18.20;83.60
40932;DHT22;36257;46.052;12.540;2023-05-14T13:37:23;17.90;83.80
40932;DHT22;36257;46.052;12.540;2023-05-14T13:39:48;17.70;84.90
40932;DHT22;36257;46.052;12.540;2023-05-14T13:42:14;17.50;87.50
40932;DHT22;36257;46.052;12.540;2023-05-14T13:44:40;17.30;86.90
40932;DHT22;36257;46.052;12.540;2023-05-14T13:47:06;17.20;88.10
40932;DHT22;36257;46.052;12.540;2023-05-14T13:49:31;17.10;89.20
40932;DHT22;36257;46.052;12.540;2023-05-14T13:51:57;17.10;90.10
40932;DHT22;36257;46.052;12.540;2023-05-14T13:54:23;17.10;92.20
40932;DHT22;36257;46.052;12.540;2023-05-14T13:56:48;17.10;92.00
40932;DHT22;36257;46.052;12.540;2023-05-14T13:59:14;17.10;93.20
40932;DHT22;36257;46.052;12.540;2023-05-14T14:01:40;17.00;92.30
40932;DHT22;36257;46.052;12.540;2023-05-14T14:04:08;16.90;89.60
40932;DHT22;36257;46.052;12.540;2023-05-14T14:06:34;16.90;87.30
40932;DHT22;36257;46.052;12.540;2023-05-14T14:08:59;16.70;89.00
40932;DHT22;36257;46.052;12.540;2023-05-14T14:11:26;16.70;90.00
40932;DHT22;36257;46.052;12.540;2023-05-14T14:13:52;16.60;89.40
40932;DHT22;36257;46.052;12.540;2023-05-14T14:16:18;16.40;90.00
40932;DHT22;36257;46.052;12.540;2023-05-14T14:18:44;16.10;91.20
40932;DHT22;36257;46.052;12.540;2023-05-14T14:21:10;16.00;92.20
40932;DHT22;36257;46.052;12.540;2023-05-14T14:23:35;15.90;91.10
40932;DHT22;36257;46.052;12.540;2023-05-14T14:26:01;15.70;92.00
40932;DHT22;36257;46.052;12.540;2023-05-14T14:28:27;15.60;91.70
40932;DHT22;36257;46.052;12.540;2023-05-14T14:30:52;15.50;92.40
40932;DHT22;36257;46.052;12.540;2023-05-14T14:33:18;15.50;91.00
40932;DHT22;36257;46.052;12.540;2023-05-14T14:35:44;15.50;92.10
40932;DHT22;36257;46.052;12.540;2023-05-14T14:38:09;15.40;92.30
40932;DHT22;36257;46.052;12.540;2023-05-14T14:40:35;15.50;92.50
40932;DHT22;36257;46.052;12.540;2023-05-14T14:43:01;15.50;92.40
40932;DHT22;36257;46.052;12.540;2023-05-14T14:45:26;15.50;91.70
40932;DHT22;36257;46.052;12.540;2023-05-14T14:48:22;15.60;92.50
40932;DHT22;36257;46.052;12.540;2023-05-14T14:50:48;15.70;93.60
40932;DHT22;36257;46.052;12.540;2023-05-14T14:53:14;15.80;92.90
40932;DHT22;36257;46.052;12.540;2023-05-14T14:55:39;15.80;95.20
40932;DHT22;36257;46.052;12.540;2023-05-14T14:58:05;15.80;94.20
40932;DHT22;36257;46.052;12.540;2023-05-14T15:00:31;15.70;95.30
40932;DHT22;36257;46.052;12.540;2023-05-14T15:02:57;15.60;95.10
40932;DHT22;36257;46.052;12.540;2023-05-14T15:05:24;15.70;96.00
40932;DHT22;36257;46.052;12.540;2023-05-14T15:07:49;15.70;96.60
40932;DHT22;36257;46.052;12.540;2023-05-14T15:10:15;15.80;96.10
40932;DHT22;36257;46.052;12.540;2023-05-14T15:12:41;15.90;95.60
40932;DHT22;36257;46.052;12.540;2023-05-14T15:15:07;16.00;94.40
40932;DHT22;36257;46.052;12.540;2023-05-14T15:17:33;16.00;94.40
40932;DHT22;36257;46.052;12.540;2023-05-14T15:19:59;16.00;94.30